Bismarck, North Dakota
Current Conditions -  °F | °C
As of 10:52 PM on Saturday 20 Dec 2014 (Local Time) from KBIS Reporting Station
Clear Clear  
Wind Chill: 18°   Ceiling: Unl
Heat Index: 18°   Visibility: 9mi
Dew Point: 17°   Wind: 3mph
Humidity: 96%   Direction: 70°ENE
Pressure: 29.79"   Gusts: NA
Location:  46.81°N, 100.77°W
Report Text: KBIS 210452Z 07003KT 9SM CLR M08/M08 A2979 RMK AO2 SLP117 I1000 T10781083
Loading
Personal Weather Stations






























Interactive Weather Map New forecast layout! Learn more

10-Day Weather Forecast

Advertisements
Track Severe Weather on mobile